sensor_id;sensor_type;location;lat;lon;timestamp;pressure;altitude;pressure_sealevel;temperature;humidity
498;BME280;39559;48.630;9.162;2024-03-08T00:00:34;97410.66;;;-1.03;100.00
498;BME280;39559;48.630;9.162;2024-03-08T00:03:00;97408.94;;;-1.06;100.00
498;BME280;39559;48.630;9.162;2024-03-08T00:07:33;97392.00;;;-0.96;100.00
498;BME280;39559;48.630;9.162;2024-03-08T00:09:58;97384.34;;;-0.96;100.00
498;BME280;39559;48.630;9.162;2024-03-08T00:12:24;97385.19;;;-0.95;100.00
498;BME280;39559;48.630;9.162;2024-03-08T00:14:53;97376.66;;;-1.04;100.00
498;BME280;39559;48.630;9.162;2024-03-08T00:17:21;97389.41;;;-1.07;100.00
498;BME280;39559;48.630;9.162;2024-03-08T00:19:50;97380.94;;;-1.01;100.00
498;BME280;39559;48.630;9.162;2024-03-08T00:22:17;97380.06;;;-0.97;100.00
498;BME280;39559;48.630;9.162;2024-03-08T00:24:43;97380.91;;;-1.04;100.00
498;BME280;39559;48.630;9.162;2024-03-08T00:27:09;97383.47;;;-1.03;100.00
498;BME280;39559;48.630;9.162;2024-03-08T00:31:33;97368.19;;;-0.97;100.00
498;BME280;39559;48.630;9.162;2024-03-08T00:33:58;97368.16;;;-1.15;100.00
498;BME280;39559;48.630;9.162;2024-03-08T00:36:25;97372.38;;;-1.34;100.00
498;BME280;39559;48.630;9.162;2024-03-08T00:38:50;97367.19;;;-1.59;100.00
498;BME280;39559;48.630;9.162;2024-03-08T00:41:16;97363.81;;;-1.51;100.00
498;BME280;39559;48.630;9.162;2024-03-08T00:43:42;97368.06;;;-1.53;100.00
498;BME280;39559;48.630;9.162;2024-03-08T00:46:07;97366.41;;;-1.47;100.00
498;BME280;39559;48.630;9.162;2024-03-08T00:48:33;97375.63;;;-1.75;100.00
498;BME280;39559;48.630;9.162;2024-03-08T00:50:58;97371.41;;;-1.64;100.00
498;BME280;39559;48.630;9.162;2024-03-08T00:55:34;97366.34;;;-1.59;100.00
498;BME280;39559;48.630;9.162;2024-03-08T00:58:00;97363.78;;;-1.61;100.00
498;BME280;39559;48.630;9.162;2024-03-08T01:00:26;97361.19;;;-1.79;100.00
498;BME280;39559;48.630;9.162;2024-03-08T01:02:52;97357.84;;;-1.69;100.00
498;BME280;39559;48.630;9.162;2024-03-08T01:05:17;97352.75;;;-1.69;100.00
498;BME280;39559;48.630;9.162;2024-03-08T01:07:43;97345.91;;;-1.73;100.00
498;BME280;39559;48.630;9.162;2024-03-08T01:10:11;97350.91;;;-1.98;100.00
498;BME280;39559;48.630;9.162;2024-03-08T01:12:38;97348.41;;;-1.95;100.00
498;BME280;39559;48.630;9.162;2024-03-08T01:15:04;97350.09;;;-1.90;100.00
498;BME280;39559;48.630;9.162;2024-03-08T01:19:34;97339.94;;;-1.83;100.00
498;BME280;39559;48.630;9.162;2024-03-08T01:22:00;97344.97;;;-2.03;100.00
498;BME280;39559;48.630;9.162;2024-03-08T01:24:25;97334.00;;;-1.91;100.00
498;BME280;39559;48.630;9.162;2024-03-08T01:26:51;97336.50;;;-1.96;100.00
498;BME280;39559;48.630;9.162;2024-03-08T01:29:16;97332.28;;;-1.90;100.00
498;BME280;39559;48.630;9.162;2024-03-08T01:31:42;97335.66;;;-1.93;100.00
498;BME280;39559;48.630;9.162;2024-03-08T01:34:08;97330.56;;;-1.98;100.00
498;BME280;39559;48.630;9.162;2024-03-08T01:36:34;97325.50;;;-1.90;100.00
498;BME280;39559;48.630;9.162;2024-03-08T01:38:59;97319.53;;;-1.98;100.00
498;BME280;39559;48.630;9.162;2024-03-08T01:43:35;97311.91;;;-2.00;100.00
498;BME280;39559;48.630;9.162;2024-03-08T01:46:01;97311.03;;;-1.99;100.00
498;BME280;39559;48.630;9.162;2024-03-08T01:48:28;97300.84;;;-2.11;100.00
498;BME280;39559;48.630;9.162;2024-03-08T01:50:55;97305.00;;;-2.21;100.00
498;BME280;39559;48.630;9.162;2024-03-08T01:53:22;97304.16;;;-2.21;100.00
498;BME280;39559;48.630;9.162;2024-03-08T01:55:49;97314.34;;;-2.20;100.00
498;BME280;39559;48.630;9.162;2024-03-08T01:58:17;97311.00;;;-2.13;100.00
498;BME280;39559;48.630;9.162;2024-03-08T02:00:46;97298.31;;;-1.99;100.00
498;BME280;39559;48.630;9.162;2024-03-08T02:03:15;97296.66;;;-1.98;100.00
498;BME280;39559;48.630;9.162;2024-03-08T02:07:36;97280.41;;;-2.23;100.00
498;BME280;39559;48.630;9.162;2024-03-08T02:10:01;97280.41;;;-2.20;100.00
498;BME280;39559;48.630;9.162;2024-03-08T02:12:27;97277.00;;;-2.28;100.00
498;BME280;39559;48.630;9.162;2024-03-08T02:14:53;97275.31;;;-2.20;100.00
498;BME280;39559;48.630;9.162;2024-03-08T02:17:19;97265.97;;;-2.27;100.00
498;BME280;39559;48.630;9.162;2024-03-08T02:19:44;97264.31;;;-2.21;100.00
498;BME280;39559;48.630;9.162;2024-03-08T02:22:10;97256.63;;;-2.33;100.00
498;BME280;39559;48.630;9.162;2024-03-08T02:24:35;97256.63;;;-2.32;100.00
498;BME280;39559;48.630;9.162;2024-03-08T02:27:01;97251.56;;;-2.35;100.00
498;BME280;39559;48.630;9.162;2024-03-08T02:31:37;97255.69;;;-2.51;100.00
498;BME280;39559;48.630;9.162;2024-03-08T02:34:04;97254.88;;;-2.45;100.00
498;BME280;39559;48.630;9.162;2024-03-08T02:36:30;97246.44;;;-2.38;100.00
498;BME280;39559;48.630;9.162;2024-03-08T02:39:03;97238.81;;;-2.38;100.00
498;BME280;39559;48.630;9.162;2024-03-08T02:41:30;97234.56;;;-2.39;100.00
498;BME280;39559;48.630;9.162;2024-03-08T02:43:56;97235.38;;;-2.49;100.00
498;BME280;39559;48.630;9.162;2024-03-08T02:46:21;97236.16;;;-2.59;100.00
498;BME280;39559;48.630;9.162;2024-03-08T02:48:47;97236.16;;;-2.61;100.00
498;BME280;39559;48.630;9.162;2024-03-08T02:51:13;97232.81;;;-2.54;100.00
498;BME280;39559;48.630;9.162;2024-03-08T02:55:38;97233.63;;;-2.58;100.00
498;BME280;39559;48.630;9.162;2024-03-08T02:58:04;97231.06;;;-2.59;100.00
498;BME280;39559;48.630;9.162;2024-03-08T03:00:31;97228.56;;;-2.56;100.00
498;BME280;39559;48.630;9.162;2024-03-08T03:02:57;97220.09;;;-2.52;100.00
498;BME280;39559;48.630;9.162;2024-03-08T03:05:23;97216.72;;;-2.48;100.00
498;BME280;39559;48.630;9.162;2024-03-08T03:07:49;97215.91;;;-2.45;100.00
498;BME280;39559;48.630;9.162;2024-03-08T03:10:18;97215.88;;;-2.47;100.00
498;BME280;39559;48.630;9.162;2024-03-08T03:12:45;97215.03;;;-2.49;100.00
498;BME280;39559;48.630;9.162;2024-03-08T03:15:11;97214.16;;;-2.49;100.00
498;BME280;39559;48.630;9.162;2024-03-08T03:19:42;97204.78;;;-2.64;100.00
498;BME280;39559;48.630;9.162;2024-03-08T03:22:08;97205.66;;;-2.65;100.00
498;BME280;39559;48.630;9.162;2024-03-08T03:24:35;97204.72;;;-2.75;100.00
498;BME280;39559;48.630;9.162;2024-03-08T03:27:06;97195.41;;;-2.76;100.00
498;BME280;39559;48.630;9.162;2024-03-08T03:29:37;97204.63;;;-2.98;100.00
498;BME280;39559;48.630;9.162;2024-03-08T03:32:03;97194.50;;;-2.91;100.00
498;BME280;39559;48.630;9.162;2024-03-08T03:34:29;97190.28;;;-2.81;100.00
498;BME280;39559;48.630;9.162;2024-03-08T03:36:55;97190.31;;;-2.79;100.00
498;BME280;39559;48.630;9.162;2024-03-08T03:39:21;97191.97;;;-2.84;100.00
498;BME280;39559;48.630;9.162;2024-03-08T03:43:40;97192.81;;;-2.82;100.00
498;BME280;39559;48.630;9.162;2024-03-08T03:46:07;97186.94;;;-2.78;100.00
498;BME280;39559;48.630;9.162;2024-03-08T03:48:33;97184.44;;;-2.66;100.00
498;BME280;39559;48.630;9.162;2024-03-08T03:50:58;97190.34;;;-2.72;100.00
498;BME280;39559;48.630;9.162;2024-03-08T03:53:24;97186.94;;;-2.74;100.00
498;BME280;39559;48.630;9.162;2024-03-08T03:55:51;97181.03;;;-2.73;100.00
498;BME280;39559;48.630;9.162;2024-03-08T03:58:16;97180.16;;;-2.73;100.00
498;BME280;39559;48.630;9.162;2024-03-08T04:00:48;97179.25;;;-2.86;100.00
498;BME280;39559;48.630;9.162;2024-03-08T04:03:14;97183.47;;;-2.94;100.00
498;BME280;39559;48.630;9.162;2024-03-08T04:07:42;97179.25;;;-2.89;100.00
498;BME280;39559;48.630;9.162;2024-03-08T04:10:10;97169.09;;;-2.91;100.00
498;BME280;39559;48.630;9.162;2024-03-08T04:12:37;97171.56;;;-2.97;100.00
498;BME280;39559;48.630;9.162;2024-03-08T04:15:02;97174.09;;;-2.97;100.00
498;BME280;39559;48.630;9.162;2024-03-08T04:17:28;97170.72;;;-2.97;100.00
498;BME280;39559;48.630;9.162;2024-03-08T04:19:54;97169.75;;;-3.21;100.00
498;BME280;39559;48.630;9.162;2024-03-08T04:22:19;97172.97;;;-3.40;100.00
498;BME280;39559;48.630;9.162;2024-03-08T04:24:45;97174.69;;;-3.39;100.00
498;BME280;39559;48.630;9.162;2024-03-08T04:27:11;97178.13;;;-3.31;100.00
498;BME280;39559;48.630;9.162;2024-03-08T04:31:43;97169.75;;;-3.21;100.00
498;BME280;39559;48.630;9.162;2024-03-08T04:34:08;97176.56;;;-3.14;100.00
498;BME280;39559;48.630;9.162;2024-03-08T04:36:34;97164.69;;;-3.18;100.00
498;BME280;39559;48.630;9.162;2024-03-08T04:38:59;97162.97;;;-3.19;100.00
498;BME280;39559;48.630;9.162;2024-03-08T04:41:25;97168.88;;;-3.24;100.00
498;BME280;39559;48.630;9.162;2024-03-08T04:43:51;97158.63;;;-3.37;100.00
498;BME280;39559;48.630;9.162;2024-03-08T04:46:17;97165.41;;;-3.36;100.00
498;BME280;39559;48.630;9.162;2024-03-08T04:48:43;97157.91;;;-3.19;100.00
498;BME280;39559;48.630;9.162;2024-03-08T04:51:09;97162.16;;;-3.18;100.00
498;BME280;39559;48.630;9.162;2024-03-08T04:55:45;97157.03;;;-3.21;100.00
498;BME280;39559;48.630;9.162;2024-03-08T04:58:10;97153.59;;;-3.28;100.00
498;BME280;39559;48.630;9.162;2024-03-08T05:00:36;97151.91;;;-3.30;100.00
498;BME280;39559;48.630;9.162;2024-03-08T05:03:02;97158.72;;;-3.24;100.00
498;BME280;39559;48.630;9.162;2024-03-08T05:05:28;97147.63;;;-3.36;100.00
498;BME280;39559;48.630;9.162;2024-03-08T05:07:54;97147.59;;;-3.39;100.00
498;BME280;39559;48.630;9.162;2024-03-08T05:10:20;97141.72;;;-3.33;100.00
498;BME280;39559;48.630;9.162;2024-03-08T05:12:45;97140.09;;;-3.25;100.00
498;BME280;39559;48.630;9.162;2024-03-08T05:15:11;97144.25;;;-3.36;100.00
498;BME280;39559;48.630;9.162;2024-03-08T05:19:44;97141.66;;;-3.47;100.00
498;BME280;39559;48.630;9.162;2024-03-08T05:22:10;97143.31;;;-3.49;100.00
498;BME280;39559;48.630;9.162;2024-03-08T05:24:36;97140.78;;;-3.48;100.00
498;BME280;39559;48.630;9.162;2024-03-08T05:27:01;97137.38;;;-3.50;100.00
498;BME280;39559;48.630;9.162;2024-03-08T05:29:29;97138.22;;;-3.54;100.00
498;BME280;39559;48.630;9.162;2024-03-08T05:31:55;97137.34;;;-3.56;100.00
498;BME280;39559;48.630;9.162;2024-03-08T05:34:21;97129.72;;;-3.56;100.00
498;BME280;39559;48.630;9.162;2024-03-08T05:36:50;97134.75;;;-3.60;100.00
498;BME280;39559;48.630;9.162;2024-03-08T05:39:16;97140.75;;;-3.54;100.00
498;BME280;39559;48.630;9.162;2024-03-08T05:43:48;97144.13;;;-3.52;100.00
498;BME280;39559;48.630;9.162;2024-03-08T05:46:15;97137.47;;;-3.37;100.00
498;BME280;39559;48.630;9.162;2024-03-08T05:48:41;97130.69;;;-3.40;100.00
498;BME280;39559;48.630;9.162;2024-03-08T05:51:07;97135.69;;;-3.48;100.00
498;BME280;39559;48.630;9.162;2024-03-08T05:53:32;97130.63;;;-3.51;100.00
498;BME280;39559;48.630;9.162;2024-03-08T05:55:59;97129.75;;;-3.50;100.00
498;BME280;39559;48.630;9.162;2024-03-08T05:58:24;97133.16;;;-3.48;100.00
498;BME280;39559;48.630;9.162;2024-03-08T06:00:50;97133.25;;;-3.38;100.00
498;BME280;39559;48.630;9.162;2024-03-08T06:03:16;97131.56;;;-3.35;100.00
498;BME280;39559;48.630;9.162;2024-03-08T06:07:50;97132.44;;;-3.28;100.00
498;BME280;39559;48.630;9.162;2024-03-08T06:10:18;97134.16;;;-3.27;100.00
498;BME280;39559;48.630;9.162;2024-03-08T06:12:44;97139.25;;;-3.24;100.00
498;BME280;39559;48.630;9.162;2024-03-08T06:15:41;97134.22;;;-3.18;100.00
498;BME280;39559;48.630;9.162;2024-03-08T06:18:08;97139.34;;;-3.07;100.00
498;BME280;39559;48.630;9.162;2024-03-08T06:20:38;97135.06;;;-3.17;100.00
498;BME280;39559;48.630;9.162;2024-03-08T06:23:05;97142.63;;;-3.26;100.00
498;BME280;39559;48.630;9.162;2024-03-08T06:25:31;97144.38;;;-3.15;100.00
498;BME280;39559;48.630;9.162;2024-03-08T06:27:58;97137.69;;;-3.02;100.00
498;BME280;39559;48.630;9.162;2024-03-08T06:31:53;97137.72;;;-2.91;100.00
498;BME280;39559;48.630;9.162;2024-03-08T06:34:20;97133.53;;;-2.83;100.00
498;BME280;39559;48.630;9.162;2024-03-08T06:36:47;97129.38;;;-2.65;100.00
498;BME280;39559;48.630;9.162;2024-03-08T06:39:13;97127.72;;;-2.54;100.00
498;BME280;39559;48.630;9.162;2024-03-08T06:41:38;97132.00;;;-2.45;100.00
498;BME280;39559;48.630;9.162;2024-03-08T06:44:04;97127.75;;;-2.45;100.00
498;BME280;39559;48.630;9.162;2024-03-08T06:46:30;97128.56;;;-2.47;100.00
498;BME280;39559;48.630;9.162;2024-03-08T06:48:56;97126.91;;;-2.42;100.00
498;BME280;39559;48.630;9.162;2024-03-08T06:51:21;97126.97;;;-2.27;100.00
498;BME280;39559;48.630;9.162;2024-03-08T06:55:51;97142.25;;;-2.15;100.00
498;BME280;39559;48.630;9.162;2024-03-08T06:58:17;97135.47;;;-2.03;100.00
498;BME280;39559;48.630;9.162;2024-03-08T07:00:42;97133.78;;;-2.04;100.00
498;BME280;39559;48.630;9.162;2024-03-08T07:03:09;97124.44;;;-2.12;100.00
498;BME280;39559;48.630;9.162;2024-03-08T07:05:37;97129.53;;;-2.04;100.00
498;BME280;39559;48.630;9.162;2024-03-08T07:08:04;97132.94;;;-1.99;100.00
498;BME280;39559;48.630;9.162;2024-03-08T07:10:31;97136.34;;;-1.94;100.00
498;BME280;39559;48.630;9.162;2024-03-08T07:12:57;97131.25;;;-1.86;100.00
498;BME280;39559;48.630;9.162;2024-03-08T07:15:23;97128.72;;;-1.78;100.00
498;BME280;39559;48.630;9.162;2024-03-08T07:20:01;97121.06;;;-1.66;100.00
498;BME280;39559;48.630;9.162;2024-03-08T07:22:36;97120.22;;;-1.51;100.00
498;BME280;39559;48.630;9.162;2024-03-08T07:25:07;97115.97;;;-1.41;100.00
498;BME280;39559;48.630;9.162;2024-03-08T07:27:36;97118.50;;;-1.41;100.00
498;BME280;39559;48.630;9.162;2024-03-08T07:30:08;97117.66;;;-1.37;100.00
498;BME280;39559;48.630;9.162;2024-03-08T07:32:36;97114.22;;;-1.21;100.00
498;BME280;39559;48.630;9.162;2024-03-08T07:35:01;97107.44;;;-1.16;100.00
498;BME280;39559;48.630;9.162;2024-03-08T07:37:28;97113.38;;;-1.21;100.00
498;BME280;39559;48.630;9.162;2024-03-08T07:39:54;97109.94;;;-1.09;100.00
498;BME280;39559;48.630;9.162;2024-03-08T07:43:59;97115.88;;;-1.01;100.00
498;BME280;39559;48.630;9.162;2024-03-08T07:46:29;97113.31;;;-0.89;100.00
498;BME280;39559;48.630;9.162;2024-03-08T07:48:54;97120.03;;;-0.77;100.00
498;BME280;39559;48.630;9.162;2024-03-08T07:51:23;97122.59;;;-0.72;100.00
498;BME280;39559;48.630;9.162;2024-03-08T07:53:49;97108.09;;;-0.66;100.00
498;BME280;39559;48.630;9.162;2024-03-08T07:56:15;97106.38;;;-0.59;100.00
498;BME280;39559;48.630;9.162;2024-03-08T07:58:44;97113.16;;;-0.55;100.00
498;BME280;39559;48.630;9.162;2024-03-08T08:01:17;97103.78;;;-0.50;100.00
498;BME280;39559;48.630;9.162;2024-03-08T08:03:44;97100.41;;;-0.52;100.00
498;BME280;39559;48.630;9.162;2024-03-08T08:08:01;97095.19;;;-0.36;100.00
498;BME280;39559;48.630;9.162;2024-03-08T08:10:32;97107.94;;;-0.35;100.00
498;BME280;39559;48.630;9.162;2024-03-08T08:12:59;97106.97;;;-0.11;100.00
498;BME280;39559;48.630;9.162;2024-03-08T08:15:24;97107.81;;;-0.09;100.00
498;BME280;39559;48.630;9.162;2024-03-08T08:17:55;97107.75;;;-0.04;100.00
498;BME280;39559;48.630;9.162;2024-03-08T08:20:30;97113.69;;;0.01;100.00
498;BME280;39559;48.630;9.162;2024-03-08T08:22:56;97111.03;;;0.16;100.00
498;BME280;39559;48.630;9.162;2024-03-08T08:25:23;97095.66;;;0.21;100.00
498;BME280;39559;48.630;9.162;2024-03-08T08:27:51;97101.59;;;0.26;100.00
498;BME280;39559;48.630;9.162;2024-03-08T08:32:02;97100.50;;;0.56;100.00
498;BME280;39559;48.630;9.162;2024-03-08T08:34:29;97096.94;;;0.71;100.00
498;BME280;39559;48.630;9.162;2024-03-08T08:36:55;97098.50;;;0.85;100.00
498;BME280;39559;48.630;9.162;2024-03-08T08:39:21;97099.28;;;0.93;100.00
498;BME280;39559;48.630;9.162;2024-03-08T08:41:48;97086.41;;;1.01;100.00
498;BME280;39559;48.630;9.162;2024-03-08T08:44:14;97087.25;;;1.01;100.00
498;BME280;39559;48.630;9.162;2024-03-08T08:46:40;97076.06;;;1.10;100.00
498;BME280;39559;48.630;9.162;2024-03-08T08:49:06;97071.75;;;1.17;100.00
498;BME280;39559;48.630;9.162;2024-03-08T08:51:34;97073.50;;;1.11;100.00
498;BME280;39559;48.630;9.162;2024-03-08T08:56:02;97075.75;;;1.36;100.00
498;BME280;39559;48.630;9.162;2024-03-08T08:58:28;97075.69;;;1.41;100.00
498;BME280;39559;48.630;9.162;2024-03-08T09:00:54;97068.72;;;1.53;100.00
498;BME280;39559;48.630;9.162;2024-03-08T09:03:20;97067.19;;;1.40;100.00
498;BME280;39559;48.630;9.162;2024-03-08T09:05:46;97056.03;;;1.44;100.00
498;BME280;39559;48.630;9.162;2024-03-08T09:08:11;97047.53;;;1.42;100.00
498;BME280;39559;48.630;9.162;2024-03-08T09:10:38;97051.59;;;1.57;100.00
498;BME280;39559;48.630;9.162;2024-03-08T09:13:04;97043.78;;;1.68;100.00
498;BME280;39559;48.630;9.162;2024-03-08T09:15:30;97044.47;;;1.78;100.00
498;BME280;39559;48.630;9.162;2024-03-08T09:20:07;97035.72;;;1.92;100.00
498;BME280;39559;48.630;9.162;2024-03-08T09:22:35;97029.88;;;1.84;100.00
498;BME280;39559;48.630;9.162;2024-03-08T09:25:02;97017.34;;;1.66;100.00
498;BME280;39559;48.630;9.162;2024-03-08T09:27:32;97018.88;;;1.78;100.00
498;BME280;39559;48.630;9.162;2024-03-08T09:30:02;97011.97;;;1.83;100.00
498;BME280;39559;48.630;9.162;2024-03-08T09:32:28;97003.63;;;1.71;100.00
498;BME280;39559;48.630;9.162;2024-03-08T09:34:56;97014.38;;;1.92;100.00
498;BME280;39559;48.630;9.162;2024-03-08T09:37:23;97002.97;;;2.13;100.00
498;BME280;39559;48.630;9.162;2024-03-08T09:39:49;96999.00;;;1.94;100.00
498;BME280;39559;48.630;9.162;2024-03-08T09:44:07;96996.88;;;2.20;100.00
498;BME280;39559;48.630;9.162;2024-03-08T09:46:34;96992.38;;;2.33;100.00
498;BME280;39559;48.630;9.162;2024-03-08T09:49:00;96991.41;;;2.39;100.00
498;BME280;39559;48.630;9.162;2024-03-08T09:51:33;96981.69;;;2.55;100.00
498;BME280;39559;48.630;9.162;2024-03-08T09:54:00;96981.75;;;2.53;100.00
498;BME280;39559;48.630;9.162;2024-03-08T09:56:46;96972.19;;;2.61;100.00
498;BME280;39559;48.630;9.162;2024-03-08T09:59:13;96973.97;;;2.56;100.00
498;BME280;39559;48.630;9.162;2024-03-08T10:01:49;96974.56;;;2.71;100.00
498;BME280;39559;48.630;9.162;2024-03-08T10:04:19;96969.38;;;2.74;100.00
498;BME280;39559;48.630;9.162;2024-03-08T10:08:09;96964.78;;;2.47;100.00
498;BME280;39559;48.630;9.162;2024-03-08T10:10:40;96955.06;;;2.63;100.00
498;BME280;39559;48.630;9.162;2024-03-08T10:13:07;96957.53;;;2.68;100.00
498;BME280;39559;48.630;9.162;2024-03-08T10:15:34;96955.13;;;2.60;100.00
498;BME280;39559;48.630;9.162;2024-03-08T10:18:01;96962.63;;;2.69;100.00
498;BME280;39559;48.630;9.162;2024-03-08T10:20:30;96956.63;;;2.71;100.00
498;BME280;39559;48.630;9.162;2024-03-08T10:23:00;96945.41;;;2.75;100.00
498;BME280;39559;48.630;9.162;2024-03-08T10:25:43;96949.91;;;2.63;100.00
498;BME280;39559;48.630;9.162;2024-03-08T10:28:08;96940.84;;;2.89;100.00
498;BME280;39559;48.630;9.162;2024-03-08T10:32:11;96937.31;;;2.95;100.00
498;BME280;39559;48.630;9.162;2024-03-08T10:34:37;96938.78;;;3.06;100.00
498;BME280;39559;48.630;9.162;2024-03-08T10:37:07;96926.78;;;3.08;100.00
498;BME280;39559;48.630;9.162;2024-03-08T10:39:39;96915.78;;;3.02;100.00
498;BME280;39559;48.630;9.162;2024-03-08T10:42:10;96923.34;;;3.10;100.00
498;BME280;39559;48.630;9.162;2024-03-08T10:44:54;96917.84;;;3.25;100.00
498;BME280;39559;48.630;9.162;2024-03-08T10:47:26;96917.97;;;3.56;100.00
498;BME280;39559;48.630;9.162;2024-03-08T10:50:19;96914.63;;;3.89;100.00
498;BME280;39559;48.630;9.162;2024-03-08T10:52:52;96912.72;;;3.97;100.00
498;BME280;39559;48.630;9.162;2024-03-08T10:56:10;96905.84;;;4.61;100.00
498;BME280;39559;48.630;9.162;2024-03-08T10:58:36;96898.63;;;5.04;100.00
498;BME280;39559;48.630;9.162;2024-03-08T11:01:05;96902.81;;;5.07;100.00
498;BME280;39559;48.630;9.162;2024-03-08T11:06:15;96900.00;;;4.86;100.00
498;BME280;39559;48.630;9.162;2024-03-08T11:08:43;96895.25;;;5.02;100.00
498;BME280;39559;48.630;9.162;2024-03-08T11:11:33;96886.03;;;4.95;100.00
498;BME280;39559;48.630;9.162;2024-03-08T11:14:02;96889.97;;;4.46;100.00
498;BME280;39559;48.630;9.162;2024-03-08T11:16:48;96896.16;;;4.71;100.00
498;BME280;39559;48.630;9.162;2024-03-08T11:20:17;96884.47;;;5.17;100.00
498;BME280;39559;48.630;9.162;2024-03-08T11:23:00;96884.59;;;5.41;100.00
498;BME280;39559;48.630;9.162;2024-03-08T11:28:14;96873.06;;;5.26;100.00
498;BME280;39559;48.630;9.162;2024-03-08T11:33:32;96864.88;;;6.19;100.00
498;BME280;39559;48.630;9.162;2024-03-08T11:38:40;96855.31;;;7.37;100.00
498;BME280;39559;48.630;9.162;2024-03-08T11:41:07;96859.63;;;6.69;100.00
498;BME280;39559;48.630;9.162;2024-03-08T11:44:10;96851.88;;;6.45;100.00
498;BME280;39559;48.630;9.162;2024-03-08T11:46:37;96843.81;;;7.44;100.00
498;BME280;39559;48.630;9.162;2024-03-08T11:49:05;96840.28;;;7.25;100.00
498;BME280;39559;48.630;9.162;2024-03-08T11:51:31;96838.88;;;7.38;100.00
498;BME280;39559;48.630;9.162;2024-03-08T11:53:57;96829.44;;;8.40;100.00
498;BME280;39559;48.630;9.162;2024-03-08T11:56:24;96824.97;;;7.20;100.00
498;BME280;39559;48.630;9.162;2024-03-08T11:58:55;96818.66;;;7.70;100.00
498;BME280;39559;48.630;9.162;2024-03-08T12:01:24;96823.63;;;7.95;100.00
498;BME280;39559;48.630;9.162;2024-03-08T12:03:54;96810.94;;;8.87;100.00
498;BME280;39559;48.630;9.162;2024-03-08T12:08:14;96808.22;;;8.13;100.00
498;BME280;39559;48.630;9.162;2024-03-08T12:10:41;96813.22;;;7.97;100.00
498;BME280;39559;48.630;9.162;2024-03-08T12:13:08;96803.34;;;7.86;100.00
498;BME280;39559;48.630;9.162;2024-03-08T12:15:39;96798.63;;;7.75;100.00
498;BME280;39559;48.630;9.162;2024-03-08T12:18:05;96795.72;;;8.41;100.00
498;BME280;39559;48.630;9.162;2024-03-08T12:20:32;96797.03;;;8.31;100.00
498;BME280;39559;48.630;9.162;2024-03-08T12:22:58;96791.50;;;8.20;100.00
498;BME280;39559;48.630;9.162;2024-03-08T12:28:44;96786.94;;;8.45;100.00
498;BME280;39559;48.630;9.162;2024-03-08T12:32:18;96779.09;;;9.56;100.00
498;BME280;39559;48.630;9.162;2024-03-08T12:34:52;96783.91;;;8.93;100.00
498;BME280;39559;48.630;9.162;2024-03-08T12:37:20;96786.41;;;9.66;100.00
498;BME280;39559;48.630;9.162;2024-03-08T12:39:45;96778.78;;;9.28;100.00
498;BME280;39559;48.630;9.162;2024-03-08T12:42:11;96772.34;;;10.05;100.00
498;BME280;39559;48.630;9.162;2024-03-08T12:44:36;96761.06;;;11.03;100.00
498;BME280;39559;48.630;9.162;2024-03-08T12:47:10;96753.75;;;11.70;99.00
498;BME280;39559;48.630;9.162;2024-03-08T12:49:37;96747.72;;;11.39;97.86
498;BME280;39559;48.630;9.162;2024-03-08T12:52:10;96754.94;;;10.07;100.00
498;BME280;39559;48.630;9.162;2024-03-08T12:56:42;96746.63;;;8.97;100.00
498;BME280;39559;48.630;9.162;2024-03-08T12:59:08;96734.75;;;9.63;100.00
498;BME280;39559;48.630;9.162;2024-03-08T13:01:40;96731.09;;;10.65;100.00
498;BME280;39559;48.630;9.162;2024-03-08T13:04:07;96734.38;;;9.18;100.00
498;BME280;39559;48.630;9.162;2024-03-08T13:06:42;96729.31;;;8.23;100.00
498;BME280;39559;48.630;9.162;2024-03-08T13:09:08;96736.34;;;9.13;100.00
498;BME280;39559;48.630;9.162;2024-03-08T13:11:34;96722.78;;;9.93;100.00
498;BME280;39559;48.630;9.162;2024-03-08T13:14:03;96715.50;;;9.84;100.00
498;BME280;39559;48.630;9.162;2024-03-08T13:16:32;96706.38;;;9.93;100.00
498;BME280;39559;48.630;9.162;2024-03-08T13:20:13;96714.28;;;8.12;100.00
498;BME280;39559;48.630;9.162;2024-03-08T13:22:45;96705.25;;;8.02;100.00
498;BME280;39559;48.630;9.162;2024-03-08T13:25:10;96699.03;;;8.44;100.00
498;BME280;39559;48.630;9.162;2024-03-08T13:27:40;96690.31;;;8.83;100.00
498;BME280;39559;48.630;9.162;2024-03-08T13:30:13;96693.41;;;9.59;100.00
498;BME280;39559;48.630;9.162;2024-03-08T13:32:40;96692.16;;;10.00;100.00
498;BME280;39559;48.630;9.162;2024-03-08T13:35:13;96683.81;;;9.61;100.00
498;BME280;39559;48.630;9.162;2024-03-08T13:37:43;96692.28;;;10.14;100.00
498;BME280;39559;48.630;9.162;2024-03-08T13:40:11;96680.84;;;9.85;100.00
498;BME280;39559;48.630;9.162;2024-03-08T13:44:14;96688.09;;;9.28;100.00
498;BME280;39559;48.630;9.162;2024-03-08T13:46:40;96680.78;;;8.47;100.00
498;BME280;39559;48.630;9.162;2024-03-08T13:49:07;96669.53;;;9.19;100.00
498;BME280;39559;48.630;9.162;2024-03-08T13:51:39;96656.72;;;10.01;100.00
498;BME280;39559;48.630;9.162;2024-03-08T13:54:05;96652.91;;;9.41;100.00
498;BME280;39559;48.630;9.162;2024-03-08T13:56:32;96649.75;;;10.01;100.00
498;BME280;39559;48.630;9.162;2024-03-08T13:58:59;96657.75;;;9.47;100.00
498;BME280;39559;48.630;9.162;2024-03-08T14:01:25;96661.44;;;9.43;100.00
498;BME280;39559;48.630;9.162;2024-03-08T14:03:51;96657.88;;;8.93;100.00
498;BME280;39559;48.630;9.162;2024-03-08T14:08:32;96645.97;;;8.54;100.00
498;BME280;39559;48.630;9.162;2024-03-08T14:10:59;96650.44;;;8.51;100.00
498;BME280;39559;48.630;9.162;2024-03-08T14:13:44;96639.19;;;8.69;100.00
498;BME280;39559;48.630;9.162;2024-03-08T14:16:12;96638.69;;;8.97;100.00
498;BME280;39559;48.630;9.162;2024-03-08T14:18:39;96636.31;;;8.93;100.00
498;BME280;39559;48.630;9.162;2024-03-08T14:21:06;96631.13;;;8.93;100.00
498;BME280;39559;48.630;9.162;2024-03-08T14:23:36;96631.28;;;9.07;100.00
498;BME280;39559;48.630;9.162;2024-03-08T14:26:05;96626.72;;;8.95;100.00
498;BME280;39559;48.630;9.162;2024-03-08T14:28:32;96629.19;;;8.80;100.00
498;BME280;39559;48.630;9.162;2024-03-08T14:32:13;96628.50;;;8.40;100.00
498;BME280;39559;48.630;9.162;2024-03-08T14:35:06;96620.56;;;8.07;100.00
498;BME280;39559;48.630;9.162;2024-03-08T14:37:33;96619.72;;;7.87;100.00